sensor_id;sensor_type;location;lat;lon;timestamp;P1;durP1;ratioP1;P2;durP2;ratioP2
18520;SDS011;9390;51.244;6.982;2023-05-10T00:02:01;29.40;;;9.98;;
18520;SDS011;9390;51.244;6.982;2023-05-10T00:04:32;37.55;;;10.25;;
18520;SDS011;9390;51.244;6.982;2023-05-10T00:07:05;31.75;;;10.48;;
18520;SDS011;9390;51.244;6.982;2023-05-10T00:09:37;33.88;;;9.73;;
18520;SDS011;9390;51.244;6.982;2023-05-10T00:12:08;31.63;;;9.52;;
18520;SDS011;9390;51.244;6.982;2023-05-10T00:14:40;29.50;;;8.85;;
18520;SDS011;9390;51.244;6.982;2023-05-10T00:17:11;31.67;;;10.25;;
18520;SDS011;9390;51.244;6.982;2023-05-10T00:19:43;35.20;;;9.40;;
18520;SDS011;9390;51.244;6.982;2023-05-10T00:22:16;42.33;;;10.27;;
18520;SDS011;9390;51.244;6.982;2023-05-10T00:24:48;37.75;;;10.30;;
18520;SDS011;9390;51.244;6.982;2023-05-10T00:27:19;37.33;;;10.60;;
18520;SDS011;9390;51.244;6.982;2023-05-10T00:29:51;32.95;;;8.98;;
18520;SDS011;9390;51.244;6.982;2023-05-10T00:32:22;27.27;;;8.65;;
18520;SDS011;9390;51.244;6.982;2023-05-10T00:34:54;30.80;;;8.73;;
18520;SDS011;9390;51.244;6.982;2023-05-10T00:37:26;33.08;;;9.57;;
18520;SDS011;9390;51.244;6.982;2023-05-10T00:39:58;34.00;;;9.98;;
18520;SDS011;9390;51.244;6.982;2023-05-10T00:42:29;36.20;;;9.75;;
18520;SDS011;9390;51.244;6.982;2023-05-10T00:45:01;37.38;;;10.15;;
18520;SDS011;9390;51.244;6.982;2023-05-10T00:47:33;39.33;;;11.38;;
18520;SDS011;9390;51.244;6.982;2023-05-10T00:50:05;38.55;;;11.07;;
18520;SDS011;9390;51.244;6.982;2023-05-10T00:52:40;38.63;;;10.75;;
18520;SDS011;9390;51.244;6.982;2023-05-10T00:55:12;40.95;;;11.05;;
18520;SDS011;9390;51.244;6.982;2023-05-10T00:57:44;53.22;;;11.90;;
18520;SDS011;9390;51.244;6.982;2023-05-10T01:00:16;57.28;;;12.27;;
18520;SDS011;9390;51.244;6.982;2023-05-10T01:02:48;46.45;;;11.27;;
18520;SDS011;9390;51.244;6.982;2023-05-10T01:05:20;35.45;;;10.55;;
18520;SDS011;9390;51.244;6.982;2023-05-10T01:07:53;39.10;;;10.77;;
18520;SDS011;9390;51.244;6.982;2023-05-10T01:10:25;38.08;;;10.90;;
18520;SDS011;9390;51.244;6.982;2023-05-10T01:12:57;35.58;;;9.95;;
18520;SDS011;9390;51.244;6.982;2023-05-10T01:15:30;34.17;;;10.20;;
18520;SDS011;9390;51.244;6.982;2023-05-10T01:18:02;36.00;;;10.33;;
18520;SDS011;9390;51.244;6.982;2023-05-10T01:20:35;36.93;;;11.23;;
18520;SDS011;9390;51.244;6.982;2023-05-10T01:23:16;40.28;;;11.18;;
18520;SDS011;9390;51.244;6.982;2023-05-10T01:26:07;41.50;;;10.40;;
18520;SDS011;9390;51.244;6.982;2023-05-10T01:29:05;35.72;;;10.95;;
18520;SDS011;9390;51.244;6.982;2023-05-10T01:35:04;41.15;;;11.85;;
18520;SDS011;9390;51.244;6.982;2023-05-10T01:37:41;37.75;;;12.05;;
18520;SDS011;9390;51.244;6.982;2023-05-10T01:40:17;37.75;;;12.82;;
18520;SDS011;9390;51.244;6.982;2023-05-10T01:42:55;37.78;;;11.75;;
18520;SDS011;9390;51.244;6.982;2023-05-10T01:45:31;42.58;;;11.18;;
18520;SDS011;9390;51.244;6.982;2023-05-10T01:48:08;37.05;;;11.50;;
18520;SDS011;9390;51.244;6.982;2023-05-10T01:50:43;38.75;;;12.30;;
18520;SDS011;9390;51.244;6.982;2023-05-10T01:53:17;33.38;;;10.27;;
18520;SDS011;9390;51.244;6.982;2023-05-10T01:55:51;31.73;;;11.60;;
18520;SDS011;9390;51.244;6.982;2023-05-10T01:58:25;34.60;;;12.07;;
18520;SDS011;9390;51.244;6.982;2023-05-10T02:01:00;39.67;;;11.77;;
18520;SDS011;9390;51.244;6.982;2023-05-10T02:03:32;45.95;;;12.45;;
18520;SDS011;9390;51.244;6.982;2023-05-10T02:06:08;42.88;;;11.90;;
18520;SDS011;9390;51.244;6.982;2023-05-10T02:08:40;46.47;;;12.15;;
18520;SDS011;9390;51.244;6.982;2023-05-10T02:11:12;44.10;;;11.75;;
18520;SDS011;9390;51.244;6.982;2023-05-10T02:13:44;41.10;;;11.53;;
18520;SDS011;9390;51.244;6.982;2023-05-10T02:16:17;46.85;;;12.30;;
18520;SDS011;9390;51.244;6.982;2023-05-10T02:18:50;44.85;;;13.02;;
18520;SDS011;9390;51.244;6.982;2023-05-10T02:21:24;46.33;;;12.32;;
18520;SDS011;9390;51.244;6.982;2023-05-10T02:23:56;43.13;;;11.25;;
18520;SDS011;9390;51.244;6.982;2023-05-10T02:26:28;55.35;;;12.80;;
18520;SDS011;9390;51.244;6.982;2023-05-10T02:29:01;42.10;;;12.63;;
18520;SDS011;9390;51.244;6.982;2023-05-10T02:31:34;50.90;;;12.38;;
18520;SDS011;9390;51.244;6.982;2023-05-10T02:34:08;45.80;;;11.93;;
18520;SDS011;9390;51.244;6.982;2023-05-10T02:36:42;52.25;;;12.73;;
18520;SDS011;9390;51.244;6.982;2023-05-10T02:41:46;36.75;;;11.25;;
18520;SDS011;9390;51.244;6.982;2023-05-10T02:44:19;41.53;;;10.82;;
18520;SDS011;9390;51.244;6.982;2023-05-10T02:46:52;38.33;;;10.88;;
18520;SDS011;9390;51.244;6.982;2023-05-10T02:49:25;40.38;;;10.73;;
18520;SDS011;9390;51.244;6.982;2023-05-10T02:52:00;37.58;;;10.00;;
18520;SDS011;9390;51.244;6.982;2023-05-10T02:54:33;39.15;;;10.95;;
18520;SDS011;9390;51.244;6.982;2023-05-10T02:57:05;47.13;;;10.65;;
18520;SDS011;9390;51.244;6.982;2023-05-10T02:59:37;42.13;;;10.77;;
18520;SDS011;9390;51.244;6.982;2023-05-10T03:02:08;40.42;;;10.88;;
18520;SDS011;9390;51.244;6.982;2023-05-10T03:04:40;42.72;;;10.82;;
18520;SDS011;9390;51.244;6.982;2023-05-10T03:07:13;45.20;;;11.90;;
18520;SDS011;9390;51.244;6.982;2023-05-10T03:09:44;48.33;;;11.75;;
18520;SDS011;9390;51.244;6.982;2023-05-10T03:12:18;48.55;;;11.50;;
18520;SDS011;9390;51.244;6.982;2023-05-10T03:14:56;44.15;;;12.00;;
18520;SDS011;9390;51.244;6.982;2023-05-10T03:17:34;57.42;;;12.63;;
18520;SDS011;9390;51.244;6.982;2023-05-10T03:20:11;60.85;;;13.40;;
18520;SDS011;9390;51.244;6.982;2023-05-10T03:22:47;44.85;;;12.93;;
18520;SDS011;9390;51.244;6.982;2023-05-10T03:25:20;61.20;;;12.52;;
18520;SDS011;9390;51.244;6.982;2023-05-10T03:27:52;65.75;;;14.32;;
18520;SDS011;9390;51.244;6.982;2023-05-10T03:30:24;58.30;;;13.40;;
18520;SDS011;9390;51.244;6.982;2023-05-10T03:32:55;58.30;;;12.40;;
18520;SDS011;9390;51.244;6.982;2023-05-10T03:35:27;65.25;;;14.40;;
18520;SDS011;9390;51.244;6.982;2023-05-10T03:38:00;59.33;;;12.38;;
18520;SDS011;9390;51.244;6.982;2023-05-10T03:40:32;58.08;;;13.07;;
18520;SDS011;9390;51.244;6.982;2023-05-10T03:43:03;70.55;;;13.30;;
18520;SDS011;9390;51.244;6.982;2023-05-10T03:45:35;67.85;;;13.13;;
18520;SDS011;9390;51.244;6.982;2023-05-10T03:48:06;65.43;;;13.23;;
18520;SDS011;9390;51.244;6.982;2023-05-10T03:50:37;74.13;;;12.48;;
18520;SDS011;9390;51.244;6.982;2023-05-10T03:53:10;66.65;;;13.40;;
18520;SDS011;9390;51.244;6.982;2023-05-10T03:55:42;79.35;;;12.65;;
18520;SDS011;9390;51.244;6.982;2023-05-10T03:58:13;68.40;;;12.82;;
18520;SDS011;9390;51.244;6.982;2023-05-10T04:00:45;65.60;;;12.57;;
18520;SDS011;9390;51.244;6.982;2023-05-10T04:03:16;80.68;;;15.10;;
18520;SDS011;9390;51.244;6.982;2023-05-10T04:05:48;71.90;;;14.75;;
18520;SDS011;9390;51.244;6.982;2023-05-10T04:08:21;59.08;;;13.50;;
18520;SDS011;9390;51.244;6.982;2023-05-10T04:10:52;56.63;;;13.70;;
18520;SDS011;9390;51.244;6.982;2023-05-10T04:13:23;59.47;;;13.38;;
18520;SDS011;9390;51.244;6.982;2023-05-10T04:15:55;84.63;;;14.38;;
18520;SDS011;9390;51.244;6.982;2023-05-10T04:18:26;75.85;;;13.57;;
18520;SDS011;9390;51.244;6.982;2023-05-10T04:20:58;67.13;;;15.57;;
18520;SDS011;9390;51.244;6.982;2023-05-10T04:23:30;82.70;;;20.02;;
18520;SDS011;9390;51.244;6.982;2023-05-10T04:26:02;101.32;;;19.63;;
18520;SDS011;9390;51.244;6.982;2023-05-10T04:28:33;89.03;;;19.10;;
18520;SDS011;9390;51.244;6.982;2023-05-10T04:31:06;78.18;;;18.05;;
18520;SDS011;9390;51.244;6.982;2023-05-10T04:33:38;77.47;;;18.15;;
18520;SDS011;9390;51.244;6.982;2023-05-10T04:36:09;80.18;;;19.02;;
18520;SDS011;9390;51.244;6.982;2023-05-10T04:38:42;84.40;;;18.35;;
18520;SDS011;9390;51.244;6.982;2023-05-10T04:41:13;86.22;;;19.08;;
18520;SDS011;9390;51.244;6.982;2023-05-10T04:43:45;70.15;;;18.25;;
18520;SDS011;9390;51.244;6.982;2023-05-10T04:46:16;86.22;;;18.90;;
18520;SDS011;9390;51.244;6.982;2023-05-10T04:48:47;81.68;;;18.45;;
18520;SDS011;9390;51.244;6.982;2023-05-10T04:51:19;72.97;;;16.88;;
18520;SDS011;9390;51.244;6.982;2023-05-10T04:53:52;76.77;;;17.70;;
18520;SDS011;9390;51.244;6.982;2023-05-10T04:56:24;75.30;;;17.27;;
18520;SDS011;9390;51.244;6.982;2023-05-10T04:58:55;112.72;;;20.90;;
18520;SDS011;9390;51.244;6.982;2023-05-10T05:01:26;113.38;;;20.60;;
18520;SDS011;9390;51.244;6.982;2023-05-10T05:03:58;83.82;;;20.05;;
18520;SDS011;9390;51.244;6.982;2023-05-10T05:06:29;83.15;;;20.15;;
18520;SDS011;9390;51.244;6.982;2023-05-10T05:09:02;93.65;;;20.60;;
18520;SDS011;9390;51.244;6.982;2023-05-10T05:11:33;87.80;;;20.10;;
18520;SDS011;9390;51.244;6.982;2023-05-10T05:14:05;87.10;;;20.77;;
18520;SDS011;9390;51.244;6.982;2023-05-10T05:16:36;85.57;;;20.20;;
18520;SDS011;9390;51.244;6.982;2023-05-10T05:19:08;94.45;;;21.17;;
18520;SDS011;9390;51.244;6.982;2023-05-10T05:21:39;82.43;;;23.13;;
18520;SDS011;9390;51.244;6.982;2023-05-10T05:24:12;79.43;;;20.52;;
18520;SDS011;9390;51.244;6.982;2023-05-10T05:26:43;89.50;;;21.50;;
18520;SDS011;9390;51.244;6.982;2023-05-10T05:29:14;102.32;;;21.20;;
18520;SDS011;9390;51.244;6.982;2023-05-10T05:31:46;99.13;;;22.35;;
18520;SDS011;9390;51.244;6.982;2023-05-10T05:34:17;88.60;;;22.17;;
18520;SDS011;9390;51.244;6.982;2023-05-10T05:36:50;85.85;;;21.45;;
18520;SDS011;9390;51.244;6.982;2023-05-10T05:39:23;101.35;;;21.25;;
18520;SDS011;9390;51.244;6.982;2023-05-10T05:41:54;88.90;;;20.80;;
18520;SDS011;9390;51.244;6.982;2023-05-10T05:44:25;99.07;;;21.17;;
18520;SDS011;9390;51.244;6.982;2023-05-10T05:46:58;65.43;;;20.58;;
18520;SDS011;9390;51.244;6.982;2023-05-10T05:49:30;88.82;;;21.40;;
18520;SDS011;9390;51.244;6.982;2023-05-10T05:52:01;91.82;;;21.55;;
18520;SDS011;9390;51.244;6.982;2023-05-10T05:54:35;95.03;;;21.38;;
18520;SDS011;9390;51.244;6.982;2023-05-10T05:57:06;92.28;;;20.50;;
18520;SDS011;9390;51.244;6.982;2023-05-10T05:59:39;79.87;;;21.63;;
18520;SDS011;9390;51.244;6.982;2023-05-10T06:02:13;70.95;;;19.50;;
18520;SDS011;9390;51.244;6.982;2023-05-10T06:04:45;76.90;;;20.20;;
18520;SDS011;9390;51.244;6.982;2023-05-10T06:07:16;73.50;;;20.10;;
18520;SDS011;9390;51.244;6.982;2023-05-10T06:09:49;75.95;;;20.40;;
18520;SDS011;9390;51.244;6.982;2023-05-10T06:12:20;71.90;;;19.00;;
18520;SDS011;9390;51.244;6.982;2023-05-10T06:14:52;61.20;;;19.83;;
18520;SDS011;9390;51.244;6.982;2023-05-10T06:17:23;56.38;;;18.98;;
18520;SDS011;9390;51.244;6.982;2023-05-10T06:19:55;51.67;;;17.48;;
18520;SDS011;9390;51.244;6.982;2023-05-10T06:22:26;57.30;;;17.75;;
18520;SDS011;9390;51.244;6.982;2023-05-10T06:24:59;57.92;;;17.55;;
18520;SDS011;9390;51.244;6.982;2023-05-10T06:27:31;52.72;;;17.25;;
18520;SDS011;9390;51.244;6.982;2023-05-10T06:30:03;53.28;;;16.80;;
18520;SDS011;9390;51.244;6.982;2023-05-10T06:32:35;56.78;;;17.95;;
18520;SDS011;9390;51.244;6.982;2023-05-10T06:35:07;49.45;;;16.90;;
18520;SDS011;9390;51.244;6.982;2023-05-10T06:37:39;45.97;;;16.25;;
18520;SDS011;9390;51.244;6.982;2023-05-10T06:40:12;56.90;;;16.88;;
18520;SDS011;9390;51.244;6.982;2023-05-10T06:42:44;64.55;;;17.38;;
18520;SDS011;9390;51.244;6.982;2023-05-10T06:45:15;60.08;;;18.67;;
18520;SDS011;9390;51.244;6.982;2023-05-10T06:47:47;74.22;;;19.83;;
18520;SDS011;9390;51.244;6.982;2023-05-10T06:50:18;61.28;;;18.80;;
18520;SDS011;9390;51.244;6.982;2023-05-10T06:52:50;53.88;;;18.08;;
18520;SDS011;9390;51.244;6.982;2023-05-10T06:55:23;60.30;;;18.30;;
18520;SDS011;9390;51.244;6.982;2023-05-10T06:57:54;59.55;;;17.95;;
18520;SDS011;9390;51.244;6.982;2023-05-10T07:00:25;61.45;;;16.77;;
18520;SDS011;9390;51.244;6.982;2023-05-10T07:02:57;69.63;;;19.08;;
18520;SDS011;9390;51.244;6.982;2023-05-10T07:05:28;62.65;;;18.80;;
18520;SDS011;9390;51.244;6.982;2023-05-10T07:08:00;61.72;;;18.20;;
18520;SDS011;9390;51.244;6.982;2023-05-10T07:10:32;60.60;;;17.40;;
18520;SDS011;9390;51.244;6.982;2023-05-10T07:13:04;63.72;;;19.02;;
18520;SDS011;9390;51.244;6.982;2023-05-10T07:15:35;60.75;;;17.13;;
18520;SDS011;9390;51.244;6.982;2023-05-10T07:18:07;51.05;;;16.63;;
18520;SDS011;9390;51.244;6.982;2023-05-10T07:20:38;60.53;;;16.05;;
18520;SDS011;9390;51.244;6.982;2023-05-10T07:23:10;57.90;;;16.35;;
18520;SDS011;9390;51.244;6.982;2023-05-10T07:25:42;56.97;;;16.63;;
18520;SDS011;9390;51.244;6.982;2023-05-10T07:28:16;53.55;;;15.57;;
18520;SDS011;9390;51.244;6.982;2023-05-10T07:30:47;50.50;;;15.10;;
18520;SDS011;9390;51.244;6.982;2023-05-10T07:33:18;52.97;;;15.68;;
18520;SDS011;9390;51.244;6.982;2023-05-10T07:35:50;54.83;;;15.50;;
18520;SDS011;9390;51.244;6.982;2023-05-10T07:38:21;66.78;;;16.45;;
18520;SDS011;9390;51.244;6.982;2023-05-10T07:40:54;62.15;;;18.52;;
18520;SDS011;9390;51.244;6.982;2023-05-10T07:43:26;74.95;;;17.67;;
18520;SDS011;9390;51.244;6.982;2023-05-10T07:45:57;58.17;;;16.25;;
18520;SDS011;9390;51.244;6.982;2023-05-10T07:48:29;69.00;;;17.40;;
18520;SDS011;9390;51.244;6.982;2023-05-10T07:51:01;53.47;;;15.50;;
18520;SDS011;9390;51.244;6.982;2023-05-10T07:53:32;71.30;;;17.55;;
18520;SDS011;9390;51.244;6.982;2023-05-10T07:59:03;79.25;;;19.33;;
18520;SDS011;9390;51.244;6.982;2023-05-10T08:01:36;79.22;;;18.10;;
18520;SDS011;9390;51.244;6.982;2023-05-10T08:04:07;76.68;;;21.77;;
18520;SDS011;9390;51.244;6.982;2023-05-10T08:06:39;65.15;;;18.38;;
18520;SDS011;9390;51.244;6.982;2023-05-10T08:09:10;60.13;;;16.75;;
18520;SDS011;9390;51.244;6.982;2023-05-10T08:11:41;61.03;;;16.80;;
18520;SDS011;9390;51.244;6.982;2023-05-10T08:14:14;59.58;;;18.17;;
18520;SDS011;9390;51.244;6.982;2023-05-10T08:16:46;62.45;;;18.45;;
18520;SDS011;9390;51.244;6.982;2023-05-10T08:19:17;61.17;;;17.20;;
18520;SDS011;9390;51.244;6.982;2023-05-10T08:21:51;59.28;;;17.08;;
18520;SDS011;9390;51.244;6.982;2023-05-10T08:24:23;64.03;;;19.43;;
18520;SDS011;9390;51.244;6.982;2023-05-10T08:26:54;58.97;;;16.40;;
18520;SDS011;9390;51.244;6.982;2023-05-10T08:29:27;57.88;;;16.35;;
18520;SDS011;9390;51.244;6.982;2023-05-10T08:31:58;55.35;;;14.43;;
18520;SDS011;9390;51.244;6.982;2023-05-10T08:34:30;45.95;;;13.68;;
18520;SDS011;9390;51.244;6.982;2023-05-10T08:37:02;45.28;;;14.65;;
18520;SDS011;9390;51.244;6.982;2023-05-10T08:39:34;44.80;;;15.63;;
18520;SDS011;9390;51.244;6.982;2023-05-10T08:42:05;56.95;;;16.63;;
18520;SDS011;9390;51.244;6.982;2023-05-10T08:44:39;60.53;;;17.02;;
18520;SDS011;9390;51.244;6.982;2023-05-10T08:47:11;70.35;;;18.77;;
18520;SDS011;9390;51.244;6.982;2023-05-10T08:49:42;61.72;;;18.77;;
18520;SDS011;9390;51.244;6.982;2023-05-10T08:52:14;73.37;;;20.20;;
18520;SDS011;9390;51.244;6.982;2023-05-10T08:54:47;66.97;;;19.52;;
18520;SDS011;9390;51.244;6.982;2023-05-10T08:57:18;71.28;;;21.55;;
18520;SDS011;9390;51.244;6.982;2023-05-10T08:59:51;67.57;;;19.70;;
18520;SDS011;9390;51.244;6.982;2023-05-10T09:02:23;75.75;;;21.88;;
18520;SDS011;9390;51.244;6.982;2023-05-10T09:04:54;80.25;;;20.42;;
18520;SDS011;9390;51.244;6.982;2023-05-10T09:07:26;67.85;;;21.25;;
18520;SDS011;9390;51.244;6.982;2023-05-10T09:09:57;75.35;;;23.45;;
18520;SDS011;9390;51.244;6.982;2023-05-10T09:12:29;69.32;;;22.58;;
18520;SDS011;9390;51.244;6.982;2023-05-10T09:15:02;68.35;;;22.95;;
18520;SDS011;9390;51.244;6.982;2023-05-10T09:17:35;73.55;;;23.52;;
18520;SDS011;9390;51.244;6.982;2023-05-10T09:20:07;60.55;;;21.15;;
18520;SDS011;9390;51.244;6.982;2023-05-10T09:22:39;69.95;;;23.17;;
18520;SDS011;9390;51.244;6.982;2023-05-10T09:25:11;64.50;;;22.63;;
18520;SDS011;9390;51.244;6.982;2023-05-10T09:27:44;64.30;;;22.77;;
18520;SDS011;9390;51.244;6.982;2023-05-10T09:30:23;59.30;;;22.25;;
18520;SDS011;9390;51.244;6.982;2023-05-10T09:32:55;60.05;;;19.40;;
18520;SDS011;9390;51.244;6.982;2023-05-10T09:35:28;53.95;;;19.88;;
18520;SDS011;9390;51.244;6.982;2023-05-10T09:38:02;56.25;;;18.50;;
18520;SDS011;9390;51.244;6.982;2023-05-10T09:40:35;54.10;;;20.58;;
18520;SDS011;9390;51.244;6.982;2023-05-10T09:43:07;55.13;;;20.52;;
18520;SDS011;9390;51.244;6.982;2023-05-10T09:45:40;53.15;;;19.63;;
18520;SDS011;9390;51.244;6.982;2023-05-10T09:48:12;54.40;;;18.23;;
18520;SDS011;9390;51.244;6.982;2023-05-10T09:50:43;58.13;;;19.98;;
18520;SDS011;9390;51.244;6.982;2023-05-10T09:53:14;51.47;;;19.65;;
18520;SDS011;9390;51.244;6.982;2023-05-10T09:55:47;58.88;;;20.45;;
18520;SDS011;9390;51.244;6.982;2023-05-10T09:58:20;50.67;;;17.42;;
18520;SDS011;9390;51.244;6.982;2023-05-10T10:00:53;50.28;;;18.65;;
18520;SDS011;9390;51.244;6.982;2023-05-10T10:03:24;48.63;;;17.92;;
18520;SDS011;9390;51.244;6.982;2023-05-10T10:05:56;41.80;;;16.67;;
18520;SDS011;9390;51.244;6.982;2023-05-10T10:08:27;37.17;;;16.02;;
18520;SDS011;9390;51.244;6.982;2023-05-10T10:10:59;44.15;;;17.52;;
18520;SDS011;9390;51.244;6.982;2023-05-10T10:13:30;45.28;;;16.40;;
18520;SDS011;9390;51.244;6.982;2023-05-10T10:16:04;37.23;;;17.70;;
18520;SDS011;9390;51.244;6.982;2023-05-10T10:18:36;33.50;;;15.02;;
18520;SDS011;9390;51.244;6.982;2023-05-10T10:21:08;38.90;;;16.05;;
18520;SDS011;9390;51.244;6.982;2023-05-10T10:23:40;34.97;;;15.43;;
18520;SDS011;9390;51.244;6.982;2023-05-10T10:26:11;36.80;;;15.85;;
18520;SDS011;9390;51.244;6.982;2023-05-10T10:28:45;31.00;;;15.00;;
18520;SDS011;9390;51.244;6.982;2023-05-10T10:31:26;38.03;;;15.15;;
18520;SDS011;9390;51.244;6.982;2023-05-10T10:34:00;34.25;;;14.20;;
18520;SDS011;9390;51.244;6.982;2023-05-10T10:36:32;31.08;;;14.65;;
18520;SDS011;9390;51.244;6.982;2023-05-10T10:39:08;30.52;;;13.82;;
18520;SDS011;9390;51.244;6.982;2023-05-10T10:41:48;31.48;;;14.13;;
18520;SDS011;9390;51.244;6.982;2023-05-10T10:44:24;36.83;;;13.23;;
18520;SDS011;9390;51.244;6.982;2023-05-10T10:46:59;29.17;;;13.98;;
18520;SDS011;9390;51.244;6.982;2023-05-10T10:49:38;31.45;;;13.45;;
18520;SDS011;9390;51.244;6.982;2023-05-10T10:52:23;29.38;;;14.18;;
18520;SDS011;9390;51.244;6.982;2023-05-10T10:54:59;32.08;;;13.65;;
18520;SDS011;9390;51.244;6.982;2023-05-10T10:57:32;32.55;;;14.40;;
18520;SDS011;9390;51.244;6.982;2023-05-10T11:02:50;32.85;;;14.35;;
18520;SDS011;9390;51.244;6.982;2023-05-10T11:05:23;40.78;;;15.80;;
18520;SDS011;9390;51.244;6.982;2023-05-10T11:08:09;30.75;;;14.52;;
18520;SDS011;9390;51.244;6.982;2023-05-10T11:10:52;34.53;;;14.85;;
18520;SDS011;9390;51.244;6.982;2023-05-10T11:13:28;36.38;;;14.70;;
18520;SDS011;9390;51.244;6.982;2023-05-10T11:16:10;35.75;;;15.32;;
18520;SDS011;9390;51.244;6.982;2023-05-10T11:18:54;29.27;;;13.75;;
18520;SDS011;9390;51.244;6.982;2023-05-10T11:21:28;30.75;;;14.40;;
18520;SDS011;9390;51.244;6.982;2023-05-10T11:24:01;30.55;;;14.10;;
18520;SDS011;9390;51.244;6.982;2023-05-10T11:26:35;28.92;;;13.43;;
18520;SDS011;9390;51.244;6.982;2023-05-10T11:29:07;32.08;;;12.07;;
18520;SDS011;9390;51.244;6.982;2023-05-10T11:31:41;23.02;;;11.85;;
18520;SDS011;9390;51.244;6.982;2023-05-10T11:34:23;30.17;;;13.55;;
18520;SDS011;9390;51.244;6.982;2023-05-10T11:36:56;29.92;;;12.32;;
18520;SDS011;9390;51.244;6.982;2023-05-10T11:39:28;28.85;;;13.38;;
18520;SDS011;9390;51.244;6.982;2023-05-10T11:42:00;25.63;;;13.03;;
18520;SDS011;9390;51.244;6.982;2023-05-10T11:44:32;28.80;;;13.55;;
18520;SDS011;9390;51.244;6.982;2023-05-10T11:47:03;29.42;;;13.85;;
18520;SDS011;9390;51.244;6.982;2023-05-10T11:49:37;29.40;;;13.10;;
18520;SDS011;9390;51.244;6.982;2023-05-10T11:52:09;30.73;;;14.82;;
18520;SDS011;9390;51.244;6.982;2023-05-10T11:54:44;32.60;;;13.85;;
18520;SDS011;9390;51.244;6.982;2023-05-10T11:57:17;31.08;;;13.68;;
18520;SDS011;9390;51.244;6.982;2023-05-10T11:59:52;35.22;;;15.63;;
18520;SDS011;9390;51.244;6.982;2023-05-10T12:02:24;34.45;;;15.02;;
18520;SDS011;9390;51.244;6.982;2023-05-10T12:04:57;34.78;;;15.30;;
18520;SDS011;9390;51.244;6.982;2023-05-10T12:07:28;34.38;;;16.25;;
18520;SDS011;9390;51.244;6.982;2023-05-10T12:10:03;39.42;;;17.52;;
18520;SDS011;9390;51.244;6.982;2023-05-10T12:12:37;35.40;;;17.13;;
18520;SDS011;9390;51.244;6.982;2023-05-10T12:15:12;37.42;;;16.50;;
18520;SDS011;9390;51.244;6.982;2023-05-10T12:17:48;36.95;;;16.95;;
18520;SDS011;9390;51.244;6.982;2023-05-10T12:20:23;37.20;;;17.63;;
18520;SDS011;9390;51.244;6.982;2023-05-10T12:22:56;34.45;;;16.20;;
18520;SDS011;9390;51.244;6.982;2023-05-10T12:25:29;37.95;;;17.90;;
18520;SDS011;9390;51.244;6.982;2023-05-10T12:30:35;30.42;;;13.85;;
18520;SDS011;9390;51.244;6.982;2023-05-10T12:33:07;27.90;;;14.13;;
18520;SDS011;9390;51.244;6.982;2023-05-10T12:38:25;30.60;;;14.50;;
18520;SDS011;9390;51.244;6.982;2023-05-10T12:40:59;30.25;;;14.52;;
18520;SDS011;9390;51.244;6.982;2023-05-10T12:43:32;35.83;;;15.20;;
18520;SDS011;9390;51.244;6.982;2023-05-10T12:46:04;31.40;;;16.07;;
18520;SDS011;9390;51.244;6.982;2023-05-10T12:48:36;29.38;;;14.30;;
18520;SDS011;9390;51.244;6.982;2023-05-10T12:51:09;27.70;;;14.50;;
18520;SDS011;9390;51.244;6.982;2023-05-10T12:53:42;27.40;;;13.30;;
18520;SDS011;9390;51.244;6.982;2023-05-10T12:58:46;25.63;;;13.50;;
18520;SDS011;9390;51.244;6.982;2023-05-10T13:01:18;25.48;;;13.63;;
18520;SDS011;9390;51.244;6.982;2023-05-10T13:03:49;24.88;;;12.20;;
18520;SDS011;9390;51.244;6.982;2023-05-10T13:06:22;28.13;;;13.48;;
18520;SDS011;9390;51.244;6.982;2023-05-10T13:08:53;23.55;;;12.07;;
18520;SDS011;9390;51.244;6.982;2023-05-10T13:11:25;22.52;;;12.13;;
18520;SDS011;9390;51.244;6.982;2023-05-10T13:13:56;21.13;;;11.73;;
18520;SDS011;9390;51.244;6.982;2023-05-10T13:16:28;23.35;;;11.43;;
18520;SDS011;9390;51.244;6.982;2023-05-10T13:18:59;22.13;;;10.70;;
18520;SDS011;9390;51.244;6.982;2023-05-10T13:21:32;24.33;;;11.32;;
18520;SDS011;9390;51.244;6.982;2023-05-10T13:24:03;23.45;;;11.90;;
18520;SDS011;9390;51.244;6.982;2023-05-10T13:26:35;24.73;;;12.35;;
18520;SDS011;9390;51.244;6.982;2023-05-10T13:29:07;22.77;;;11.68;;
18520;SDS011;9390;51.244;6.982;2023-05-10T13:31:38;27.90;;;13.73;;
18520;SDS011;9390;51.244;6.982;2023-05-10T13:34:10;27.35;;;14.57;;
18520;SDS011;9390;51.244;6.982;2023-05-10T13:36:42;30.40;;;14.73;;
18520;SDS011;9390;51.244;6.982;2023-05-10T13:39:14;35.08;;;16.52;;
18520;SDS011;9390;51.244;6.982;2023-05-10T13:41:46;29.48;;;15.57;;
18520;SDS011;9390;51.244;6.982;2023-05-10T13:44:18;33.17;;;16.65;;
18520;SDS011;9390;51.244;6.982;2023-05-10T13:46:50;33.72;;;16.73;;
18520;SDS011;9390;51.244;6.982;2023-05-10T13:49:22;36.72;;;17.88;;
18520;SDS011;9390;51.244;6.982;2023-05-10T13:51:55;34.90;;;16.05;;
18520;SDS011;9390;51.244;6.982;2023-05-10T13:54:26;36.60;;;16.15;;
18520;SDS011;9390;51.244;6.982;2023-05-10T13:59:30;27.50;;;15.13;;
18520;SDS011;9390;51.244;6.982;2023-05-10T14:02:02;33.13;;;15.90;;
18520;SDS011;9390;51.244;6.982;2023-05-10T14:04:33;31.27;;;16.25;;
18520;SDS011;9390;51.244;6.982;2023-05-10T14:07:07;36.13;;;17.23;;
18520;SDS011;9390;51.244;6.982;2023-05-10T14:09:38;37.10;;;17.35;;
18520;SDS011;9390;51.244;6.982;2023-05-10T14:12:10;34.15;;;16.33;;
18520;SDS011;9390;51.244;6.982;2023-05-10T14:14:41;37.90;;;17.38;;
18520;SDS011;9390;51.244;6.982;2023-05-10T14:17:12;35.88;;;15.57;;
18520;SDS011;9390;51.244;6.982;2023-05-10T14:19:44;36.78;;;17.17;;
18520;SDS011;9390;51.244;6.982;2023-05-10T14:22:16;41.05;;;17.27;;
18520;SDS011;9390;51.244;6.982;2023-05-10T14:24:48;33.90;;;15.32;;
18520;SDS011;9390;51.244;6.982;2023-05-10T14:27:20;34.80;;;16.30;;
18520;SDS011;9390;51.244;6.982;2023-05-10T14:29:51;33.30;;;16.42;;
18520;SDS011;9390;51.244;6.982;2023-05-10T14:32:23;33.60;;;16.23;;
18520;SDS011;9390;51.244;6.982;2023-05-10T14:34:54;32.50;;;16.20;;
18520;SDS011;9390;51.244;6.982;2023-05-10T14:37:27;29.95;;;14.63;;
18520;SDS011;9390;51.244;6.982;2023-05-10T14:39:58;33.17;;;16.00;;
18520;SDS011;9390;51.244;6.982;2023-05-10T14:42:30;27.95;;;14.48;;
18520;SDS011;9390;51.244;6.982;2023-05-10T14:45:02;31.55;;;14.70;;
18520;SDS011;9390;51.244;6.982;2023-05-10T14:47:33;30.40;;;14.88;;
18520;SDS011;9390;51.244;6.982;2023-05-10T14:50:05;26.23;;;12.85;;
18520;SDS011;9390;51.244;6.982;2023-05-10T14:52:38;29.45;;;14.02;;
18520;SDS011;9390;51.244;6.982;2023-05-10T14:55:10;24.38;;;12.88;;
18520;SDS011;9390;51.244;6.982;2023-05-10T14:57:41;27.63;;;12.45;;
18520;SDS011;9390;51.244;6.982;2023-05-10T15:00:14;22.52;;;11.05;;
18520;SDS011;9390;51.244;6.982;2023-05-10T15:02:46;23.35;;;11.00;;
18520;SDS011;9390;51.244;6.982;2023-05-10T15:05:18;18.70;;;8.40;;
18520;SDS011;9390;51.244;6.982;2023-05-10T15:07:51;19.35;;;8.93;;
18520;SDS011;9390;51.244;6.982;2023-05-10T15:12:58;14.68;;;7.18;;
18520;SDS011;9390;51.244;6.982;2023-05-10T15:15:30;14.93;;;7.57;;
18520;SDS011;9390;51.244;6.982;2023-05-10T15:18:06;16.00;;;8.20;;
18520;SDS011;9390;51.244;6.982;2023-05-10T15:20:38;15.55;;;7.90;;
18520;SDS011;9390;51.244;6.982;2023-05-10T15:23:11;15.23;;;7.63;;
18520;SDS011;9390;51.244;6.982;2023-05-10T15:28:14;16.98;;;7.47;;
18520;SDS011;9390;51.244;6.982;2023-05-10T15:30:45;15.50;;;7.95;;
18520;SDS011;9390;51.244;6.982;2023-05-10T15:33:17;15.38;;;7.05;;
18520;SDS011;9390;51.244;6.982;2023-05-10T15:35:49;16.42;;;7.47;;